createdAt,value
2022-10-05T00:01:47.269Z,101166.16
2022-10-05T00:04:20.565Z,101157.38
2022-10-05T00:07:09.046Z,101159.13
2022-10-05T00:09:36.007Z,101158.25
2022-10-05T00:12:29.909Z,101150.38
2022-10-05T00:15:00.579Z,101153.00
2022-10-05T00:17:29.214Z,101155.63
2022-10-05T00:19:55.882Z,101163.50
2022-10-05T00:22:24.847Z,101160.88
2022-10-05T00:24:55.550Z,101163.53
2022-10-05T00:27:26.339Z,101153.88
2022-10-05T00:29:54.187Z,101157.38
2022-10-05T00:32:20.858Z,101155.63
2022-10-05T00:34:47.551Z,101150.34
2022-10-05T00:37:14.526Z,101142.47
2022-10-05T00:39:42.382Z,101142.47
2022-10-05T00:42:18.601Z,101141.59
2022-10-05T00:44:51.786Z,101131.97
2022-10-05T00:47:28.257Z,101125.81
2022-10-05T00:50:07.072Z,101124.91
2022-10-05T00:52:54.905Z,101114.38
2022-10-05T00:55:48.515Z,101127.53
2022-10-05T00:58:46.133Z,101131.97
2022-10-05T01:01:18.342Z,101129.34
2022-10-05T01:03:51.666Z,101129.34
2022-10-05T01:06:57.423Z,101132.00
2022-10-05T01:09:33.346Z,101123.25
2022-10-05T01:12:06.724Z,101119.75
2022-10-05T01:14:57.271Z,101123.25
2022-10-05T01:17:34.534Z,101124.13
2022-10-05T01:20:11.562Z,101122.41
2022-10-05T01:23:03.027Z,101115.41
2022-10-05T01:26:07.548Z,101110.13
2022-10-05T01:28:46.106Z,101120.66
2022-10-05T01:31:43.590Z,101128.56
2022-10-05T01:34:32.101Z,101125.06
2022-10-05T01:37:16.883Z,101121.56
2022-10-05T01:39:53.919Z,101132.97
2022-10-05T01:42:31.162Z,101121.56
2022-10-05T01:45:16.155Z,101126.84
2022-10-05T01:47:46.258Z,101123.34
2022-10-05T01:50:25.538Z,101126.84
2022-10-05T01:53:00.608Z,101127.72
2022-10-05T01:55:45.385Z,101118.94
2022-10-05T01:58:41.709Z,101120.72
2022-10-05T02:01:15.675Z,101115.44
2022-10-05T02:03:47.186Z,101119.84
2022-10-05T02:06:19.206Z,101123.31
2022-10-05T02:08:50.776Z,101122.47
2022-10-05T02:11:18.482Z,101125.97
2022-10-05T02:13:58.229Z,101126.81
2022-10-05T02:16:38.512Z,101115.47
2022-10-05T02:19:14.598Z,101128.59
2022-10-05T02:21:44.169Z,101118.97
2022-10-05T02:24:14.314Z,101113.69
2022-10-05T02:26:41.704Z,101116.31
2022-10-05T02:29:10.533Z,101120.69
2022-10-05T02:34:24.290Z,101123.34
2022-10-05T02:37:23.146Z,101120.72
2022-10-05T02:40:05.338Z,101128.59
2022-10-05T02:42:41.872Z,101111.94
2022-10-05T02:45:41.714Z,101115.47
2022-10-05T02:48:15.550Z,101118.97
2022-10-05T02:50:48.060Z,101120.69
2022-10-05T02:53:45.524Z,101120.69
2022-10-05T02:56:28.032Z,101116.34
2022-10-05T02:59:19.388Z,101112.81
2022-10-05T03:02:22.641Z,101103.19
2022-10-05T03:05:34.312Z,101101.44
2022-10-05T03:08:03.096Z,101092.69
2022-10-05T03:10:36.201Z,101088.28
2022-10-05T03:13:02.686Z,101079.53
2022-10-05T03:15:50.726Z,101079.53
2022-10-05T03:18:20.294Z,101069.84
2022-10-05T03:20:55.936Z,101067.25
2022-10-05T03:23:49.505Z,101061.09
2022-10-05T03:26:25.119Z,101049.69
2022-10-05T03:29:19.448Z,101054.06
2022-10-05T03:31:51.155Z,101048.84
2022-10-05T03:34:58.321Z,101051.44
2022-10-05T03:37:52.823Z,101048.81
2022-10-05T03:40:27.290Z,101054.06
2022-10-05T03:43:07.327Z,101051.41
2022-10-05T03:45:44.795Z,101049.63
2022-10-05T03:48:16.406Z,101046.97
2022-10-05T03:50:53.129Z,101045.22
2022-10-05T03:53:22.625Z,101046.09
2022-10-05T03:55:54.134Z,101042.59
2022-10-05T03:58:38.598Z,101038.16
2022-10-05T04:01:09.161Z,101051.31
2022-10-05T04:03:35.690Z,101053.97
2022-10-05T04:06:13.741Z,101039.88
2022-10-05T04:08:52.431Z,101037.25
2022-10-05T04:11:33.419Z,101041.56
2022-10-05T04:14:16.072Z,101041.59
2022-10-05T04:16:49.253Z,101041.56
2022-10-05T04:19:27.635Z,101037.16
2022-10-05T04:22:05.813Z,101035.34
2022-10-05T04:24:44.146Z,101040.66
2022-10-05T04:27:19.955Z,101039.78
2022-10-05T04:29:56.457Z,101048.50
2022-10-05T04:32:48.272Z,101040.63
2022-10-05T04:35:38.554Z,101045.00
2022-10-05T04:38:11.550Z,101047.63
2022-10-05T04:41:16.116Z,101051.97
2022-10-05T04:44:04.356Z,101052.88
2022-10-05T04:46:42.673Z,101053.69
2022-10-05T04:49:20.620Z,101056.34
2022-10-05T04:52:04.243Z,101058.97
2022-10-05T04:54:42.936Z,101058.06
2022-10-05T04:57:25.937Z,101041.41
2022-10-05T05:00:01.706Z,101054.56
2022-10-05T05:02:53.041Z,101040.44
2022-10-05T05:05:19.496Z,101041.38
2022-10-05T05:08:06.053Z,101048.41
2022-10-05T05:10:47.328Z,101051.91
2022-10-05T05:13:13.837Z,101052.81
2022-10-05T05:15:47.092Z,101053.69
2022-10-05T05:18:17.200Z,101050.19
2022-10-05T05:21:17.928Z,101036.13
2022-10-05T05:23:49.383Z,101031.75
2022-10-05T05:26:38.787Z,101034.38
2022-10-05T05:29:31.168Z,101027.38
2022-10-05T05:32:05.895Z,101020.31
2022-10-05T05:34:44.695Z,101029.09
2022-10-05T05:37:31.875Z,101028.22
2022-10-05T05:40:15.437Z,101026.44
2022-10-05T05:43:06.496Z,101028.16
2022-10-05T05:45:42.508Z,101021.16
2022-10-05T05:48:24.295Z,101017.69
2022-10-05T05:51:04.939Z,101016.78
2022-10-05T05:53:41.366Z,101022.91
2022-10-05T05:56:14.708Z,101036.09
2022-10-05T05:58:49.093Z,101022.94
2022-10-05T06:01:39.466Z,101023.78
2022-10-05T06:04:35.865Z,101021.13
2022-10-05T06:07:03.781Z,101030.81
2022-10-05T06:09:45.023Z,101025.50
2022-10-05T06:12:16.363Z,101024.66
2022-10-05T06:14:56.715Z,101026.34
2022-10-05T06:17:45.072Z,101027.16
2022-10-05T06:20:46.471Z,101035.94
2022-10-05T06:23:34.742Z,101034.16
2022-10-05T06:26:11.082Z,101027.94
2022-10-05T06:28:37.946Z,101027.00
2022-10-05T06:31:45.894Z,101025.19
2022-10-05T06:34:23.860Z,101027.75
2022-10-05T06:36:53.314Z,101031.06
2022-10-05T06:39:54.635Z,101042.34
2022-10-05T06:42:38.154Z,101041.41
2022-10-05T06:45:19.598Z,101036.06
2022-10-05T06:48:04.931Z,101033.38
2022-10-05T06:50:44.968Z,101034.09
2022-10-05T06:53:23.474Z,101043.66
2022-10-05T06:56:03.142Z,101053.34
2022-10-05T06:58:56.075Z,101046.28
2022-10-05T07:01:41.159Z,101049.56
2022-10-05T07:04:22.196Z,101046.97
2022-10-05T07:06:53.277Z,101049.47
2022-10-05T07:09:45.062Z,101043.16
2022-10-05T07:12:33.904Z,101038.63
2022-10-05T07:15:21.407Z,101039.44
2022-10-05T07:18:14.120Z,101034.84
2022-10-05T07:20:52.413Z,101045.28
2022-10-05T07:23:28.438Z,101039.03
2022-10-05T07:26:03.616Z,101040.75
2022-10-05T07:29:06.777Z,101038.88
2022-10-05T07:31:41.022Z,101038.81
2022-10-05T07:34:19.721Z,101040.50
2022-10-05T07:37:26.238Z,101032.44
2022-10-05T07:40:28.263Z,101024.47
2022-10-05T07:43:08.227Z,101020.03
2022-10-05T07:45:46.282Z,101022.59
2022-10-05T07:48:20.931Z,101017.16
2022-10-05T07:51:00.198Z,101025.72
2022-10-05T07:53:36.453Z,101021.44
2022-10-05T07:56:10.390Z,101028.31
2022-10-05T07:58:51.829Z,101028.06
2022-10-05T08:01:24.932Z,101029.50
2022-10-05T08:03:52.362Z,101022.91
2022-10-05T08:06:37.735Z,101024.50
2022-10-05T08:09:26.225Z,101018.72
2022-10-05T08:11:56.175Z,101018.38
2022-10-05T08:14:33.788Z,101012.69
2022-10-05T08:17:05.828Z,101012.66
2022-10-05T08:19:48.390Z,101002.88
2022-10-05T08:22:23.714Z,101002.88
2022-10-05T08:25:02.431Z,101000.06
2022-10-05T08:27:47.441Z,100990.19
2022-10-05T08:30:15.816Z,100983.69
2022-10-05T08:33:04.357Z,100986.25
2022-10-05T08:35:45.001Z,100991.47
2022-10-05T08:38:14.855Z,100987.13
2022-10-05T08:41:00.898Z,100978.25
2022-10-05T08:43:51.887Z,100988.38
2022-10-05T08:46:44.186Z,100980.25
2022-10-05T08:49:40.810Z,100980.16
2022-10-05T08:52:26.197Z,100980.97
2022-10-05T08:55:43.550Z,100979.75
2022-10-05T08:58:37.310Z,100979.84
2022-10-05T09:01:03.872Z,100988.59
2022-10-05T09:03:46.892Z,100983.84
2022-10-05T09:06:21.595Z,100987.25
2022-10-05T09:09:11.374Z,100980.00
2022-10-05T09:11:46.209Z,100981.53
2022-10-05T09:15:13.671Z,100981.03
2022-10-05T09:18:20.915Z,100985.44
2022-10-05T09:20:55.273Z,100983.38
2022-10-05T09:23:37.222Z,100976.66
2022-10-05T09:26:41.715Z,100974.44
2022-10-05T09:29:47.790Z,100977.63
2022-10-05T09:32:35.862Z,100973.91
2022-10-05T09:35:09.373Z,100976.78
2022-10-05T09:37:48.422Z,100971.88
2022-10-05T09:40:47.529Z,100967.28
2022-10-05T09:43:26.343Z,100960.78
2022-10-05T09:46:07.687Z,100966.19
2022-10-05T09:49:11.505Z,100962.16
2022-10-05T09:51:54.949Z,100965.69
2022-10-05T09:54:40.518Z,100965.22
2022-10-05T09:57:53.208Z,100974.53
2022-10-05T10:00:50.097Z,100980.09
2022-10-05T10:03:56.767Z,100962.84
2022-10-05T10:06:46.450Z,100963.38
2022-10-05T10:09:38.839Z,100967.34
2022-10-05T10:12:33.296Z,100962.63
2022-10-05T10:15:38.458Z,100956.69
2022-10-05T10:18:23.293Z,100959.41
2022-10-05T10:20:56.073Z,100964.03
2022-10-05T10:23:45.389Z,100963.00
2022-10-05T10:26:56.461Z,100972.25
2022-10-05T10:29:49.669Z,100968.88
2022-10-05T10:32:50.338Z,100964.88
2022-10-05T10:35:36.770Z,100971.44
2022-10-05T10:38:27.751Z,100967.75
2022-10-05T10:41:26.686Z,100956.69
2022-10-05T10:44:06.145Z,100965.25
2022-10-05T10:46:48.649Z,100956.94
2022-10-05T10:49:40.310Z,100954.81
2022-10-05T10:52:17.905Z,100966.88
2022-10-05T10:55:15.999Z,100960.34
2022-10-05T10:57:54.957Z,100949.81
2022-10-05T11:00:45.415Z,100938.59
2022-10-05T11:03:45.566Z,100939.78
2022-10-05T11:06:26.081Z,100944.31
2022-10-05T11:09:01.806Z,100953.56
2022-10-05T11:11:47.467Z,100950.94
2022-10-05T11:14:31.105Z,100942.81
2022-10-05T11:17:21.453Z,100925.03
2022-10-05T11:20:09.403Z,100937.91
2022-10-05T11:22:46.667Z,100942.56
2022-10-05T11:25:47.105Z,100922.66
2022-10-05T11:28:32.906Z,100922.56
2022-10-05T11:31:21.407Z,100930.81
2022-10-05T11:33:56.765Z,100928.94
2022-10-05T11:36:35.093Z,100927.88
2022-10-05T11:39:23.149Z,100926.72
2022-10-05T11:41:55.706Z,100923.59
2022-10-05T11:44:33.882Z,100921.25
2022-10-05T11:47:08.689Z,100904.66
2022-10-05T11:49:50.328Z,100909.19
2022-10-05T11:52:40.574Z,100908.84
2022-10-05T11:55:26.647Z,100890.84
2022-10-05T11:57:57.181Z,100885.72
2022-10-05T12:00:30.975Z,100889.56
2022-10-05T12:03:11.062Z,100883.22
2022-10-05T12:05:54.100Z,100891.59
2022-10-05T12:08:49.759Z,100878.72
2022-10-05T12:11:57.617Z,100876.69
2022-10-05T12:14:39.701Z,100874.25
2022-10-05T12:17:24.200Z,100866.63
2022-10-05T12:19:58.644Z,100859.09
2022-10-05T12:22:31.945Z,100862.91
2022-10-05T12:25:06.867Z,100854.09
2022-10-05T12:27:38.253Z,100849.56
2022-10-05T12:30:11.064Z,100855.41
2022-10-05T12:32:48.990Z,100855.41
2022-10-05T12:35:58.755Z,100851.88
2022-10-05T12:38:53.239Z,100845.41
2022-10-05T12:41:21.474Z,100852.81
2022-10-05T12:44:05.018Z,100846.66
2022-10-05T12:46:51.332Z,100843.13
2022-10-05T12:49:20.877Z,100846.34
2022-10-05T12:51:54.589Z,100852.56
2022-10-05T12:54:46.524Z,100850.44
2022-10-05T12:57:24.882Z,100838.72
2022-10-05T12:59:59.540Z,100832.97
2022-10-05T13:02:44.223Z,100831.53
2022-10-05T13:05:10.682Z,100834.59
2022-10-05T13:08:05.663Z,100826.28
2022-10-05T13:10:50.367Z,100830.47
2022-10-05T13:13:35.734Z,100830.09
2022-10-05T13:16:15.333Z,100817.44
2022-10-05T13:18:52.637Z,100815.78
2022-10-05T13:21:23.500Z,100812.97
2022-10-05T13:24:04.260Z,100822.63
2022-10-05T13:26:41.118Z,100821.38
2022-10-05T13:29:25.947Z,100808.00
2022-10-05T13:32:00.185Z,100813.19
2022-10-05T13:34:35.870Z,100809.03
2022-10-05T13:37:28.022Z,100807.91
2022-10-05T13:39:57.526Z,100808.63
2022-10-05T13:42:40.161Z,100801.69
2022-10-05T13:45:29.839Z,100799.28
2022-10-05T13:48:08.858Z,100801.97
2022-10-05T13:50:43.016Z,100800.13
2022-10-05T13:53:45.469Z,100799.00
2022-10-05T13:56:30.515Z,100796.72
2022-10-05T13:59:33.429Z,100795.78
2022-10-05T14:02:07.814Z,100787.75
2022-10-05T14:04:48.491Z,100793.19
2022-10-05T14:07:34.197Z,100788.88
2022-10-05T14:10:02.364Z,100786.28
2022-10-05T14:12:28.983Z,100780.94
2022-10-05T14:14:57.720Z,100781.78
2022-10-05T14:17:33.498Z,100775.41
2022-10-05T14:20:01.167Z,100778.00
2022-10-05T14:22:28.067Z,100773.44
2022-10-05T14:25:09.831Z,100767.88
2022-10-05T14:27:53.359Z,100760.78
2022-10-05T14:30:23.803Z,100758.22
2022-10-05T14:32:56.235Z,100751.81
2022-10-05T14:35:25.894Z,100758.97
2022-10-05T14:38:03.247Z,100750.22
2022-10-05T14:40:31.352Z,100749.41
2022-10-05T14:43:00.934Z,100749.91
2022-10-05T14:45:30.115Z,100745.44
2022-10-05T14:48:00.221Z,100741.47
2022-10-05T14:50:29.705Z,100744.25
2022-10-05T14:53:14.328Z,100735.66
2022-10-05T14:55:55.673Z,100739.97
2022-10-05T14:58:35.110Z,100739.47
2022-10-05T15:01:27.843Z,100745.03
2022-10-05T15:04:07.223Z,100735.59
2022-10-05T15:06:40.166Z,100738.03
2022-10-05T15:09:28.062Z,100731.41
2022-10-05T15:11:57.746Z,100732.31
2022-10-05T15:14:29.211Z,100738.34
2022-10-05T15:17:03.970Z,100738.34
2022-10-05T15:19:51.066Z,100741.72
2022-10-05T15:22:32.340Z,100737.63
2022-10-05T15:25:27.121Z,100737.56
2022-10-05T15:28:16.206Z,100736.69
2022-10-05T15:31:03.509Z,100732.03
2022-10-05T15:33:34.372Z,100730.00
2022-10-05T15:36:05.407Z,100725.53
2022-10-05T15:39:19.628Z,100730.28
2022-10-05T15:42:00.423Z,100725.81
2022-10-05T15:45:02.346Z,100733.03
2022-10-05T15:47:44.481Z,100728.16
2022-10-05T15:50:26.622Z,100721.44
2022-10-05T15:52:58.912Z,100726.28
2022-10-05T15:55:27.186Z,100720.16
2022-10-05T15:58:15.507Z,100726.53
2022-10-05T16:00:57.850Z,100725.88
2022-10-05T16:03:41.655Z,100731.50
2022-10-05T16:06:47.274Z,100726.03
2022-10-05T16:09:23.226Z,100726.47
2022-10-05T16:12:08.670Z,100737.63
2022-10-05T16:14:38.212Z,100730.38
2022-10-05T16:17:11.149Z,100732.22
2022-10-05T16:19:40.758Z,100726.91
2022-10-05T16:22:43.329Z,100725.41
2022-10-05T16:25:22.271Z,100726.94
2022-10-05T16:28:21.464Z,100723.13
2022-10-05T16:30:58.803Z,100725.59
2022-10-05T16:33:54.398Z,100731.56
2022-10-05T16:36:44.493Z,100724.22
2022-10-05T16:39:37.422Z,100730.97
2022-10-05T16:42:34.871Z,100719.81
2022-10-05T16:45:25.747Z,100723.78
2022-10-05T16:48:03.860Z,100731.28
2022-10-05T16:50:49.527Z,100722.84
2022-10-05T16:53:21.373Z,100732.59
2022-10-05T16:55:51.940Z,100748.06
2022-10-05T16:58:25.502Z,100739.34
2022-10-05T17:01:07.564Z,100732.69
2022-10-05T17:03:52.953Z,100745.13
2022-10-05T17:06:34.827Z,100731.25
2022-10-05T17:09:15.453Z,100737.06
2022-10-05T17:12:06.289Z,100741.59
2022-10-05T17:15:03.488Z,100745.31
2022-10-05T17:17:59.657Z,100747.34
2022-10-05T17:20:49.998Z,100756.25
2022-10-05T17:23:38.143Z,100758.72
2022-10-05T17:26:22.766Z,100758.34
2022-10-05T17:28:52.374Z,100761.09
2022-10-05T17:31:21.761Z,100763.69
2022-10-05T17:34:04.081Z,100762.22
2022-10-05T17:36:53.672Z,100769.69
2022-10-05T17:39:22.652Z,100761.94
2022-10-05T17:41:57.388Z,100753.25
2022-10-05T17:44:26.090Z,100761.81
2022-10-05T17:46:57.826Z,100756.44
2022-10-05T17:50:12.477Z,100750.25
2022-10-05T17:53:02.067Z,100755.09
2022-10-05T17:55:32.140Z,100755.03
2022-10-05T17:58:01.183Z,100751.56
2022-10-05T18:00:41.621Z,100755.22
2022-10-05T18:03:33.880Z,100755.66
2022-10-05T18:06:25.350Z,100757.47
2022-10-05T18:09:13.782Z,100752.56
2022-10-05T18:11:42.932Z,100755.47
2022-10-05T18:14:19.715Z,100754.31
2022-10-05T18:17:25.424Z,100749.91
2022-10-05T18:20:20.976Z,100743.88
2022-10-05T18:22:50.916Z,100742.25
2022-10-05T18:25:46.976Z,100742.38
2022-10-05T18:28:35.804Z,100736.31
2022-10-05T18:31:11.677Z,100742.63
2022-10-05T18:34:01.536Z,100734.88
2022-10-05T18:36:40.284Z,100742.22
2022-10-05T18:39:19.987Z,100733.16
2022-10-05T18:42:11.693Z,100733.34
2022-10-05T18:44:51.307Z,100736.19
2022-10-05T18:47:41.077Z,100744.38
2022-10-05T18:50:38.724Z,100741.78
2022-10-05T18:53:21.353Z,100741.00
2022-10-05T18:56:12.446Z,100744.88
2022-10-05T18:58:52.120Z,100749.28
2022-10-05T19:01:32.532Z,100742.75
2022-10-05T19:04:24.106Z,100746.09
2022-10-05T19:07:16.255Z,100743.03
2022-10-05T19:09:51.887Z,100747.53
2022-10-05T19:12:29.402Z,100746.66
2022-10-05T19:15:24.663Z,100747.72
2022-10-05T19:18:04.485Z,100757.22
2022-10-05T19:20:49.357Z,100752.09
2022-10-05T19:23:45.483Z,100754.19
2022-10-05T19:26:20.208Z,100755.38
2022-10-05T19:28:59.885Z,100760.81
2022-10-05T19:31:48.241Z,100760.03
2022-10-05T19:34:38.281Z,100767.28
2022-10-05T19:37:06.125Z,100770.94
2022-10-05T19:39:44.550Z,100779.84
2022-10-05T19:42:46.118Z,100772.94
2022-10-05T19:45:26.644Z,100778.28
2022-10-05T19:48:24.439Z,100776.59
2022-10-05T19:50:57.464Z,100787.50
2022-10-05T19:53:47.398Z,100781.44
2022-10-05T19:56:25.500Z,100793.91
2022-10-05T19:58:57.547Z,100797.63
2022-10-05T20:01:36.481Z,100791.31
2022-10-05T20:04:03.262Z,100798.41
2022-10-05T20:06:30.242Z,100793.91
2022-10-05T20:09:04.053Z,100795.81
2022-10-05T20:11:33.380Z,100796.81
2022-10-05T20:14:01.042Z,100797.69
2022-10-05T20:16:48.755Z,100797.81
2022-10-05T20:19:52.484Z,100801.50
2022-10-05T20:22:31.532Z,100814.78
2022-10-05T20:25:03.191Z,100813.75
2022-10-05T20:27:38.554Z,100815.13
2022-10-05T20:30:09.077Z,100822.53
2022-10-05T20:32:35.815Z,100821.75
2022-10-05T20:35:03.610Z,100822.84
2022-10-05T20:37:30.540Z,100821.91
2022-10-05T20:39:57.200Z,100821.94
2022-10-05T20:42:29.777Z,100825.31
2022-10-05T20:44:57.852Z,100825.34
2022-10-05T20:47:25.005Z,100831.53
2022-10-05T20:49:53.497Z,100823.38
2022-10-05T20:52:20.692Z,100832.31
2022-10-05T20:54:48.041Z,100831.97
2022-10-05T20:57:14.734Z,100835.31
2022-10-05T20:59:41.304Z,100836.22
2022-10-05T21:02:09.875Z,100836.91
2022-10-05T21:04:41.726Z,100833.53
2022-10-05T21:07:09.173Z,100837.81
2022-10-05T21:09:38.400Z,100840.38
2022-10-05T21:12:05.387Z,100845.72
2022-10-05T21:14:34.399Z,100845.63
2022-10-05T21:17:01.938Z,100842.81
2022-10-05T21:19:29.507Z,100841.13
2022-10-05T21:21:59.146Z,100844.75
2022-10-05T21:24:25.974Z,100850.97
2022-10-05T21:26:53.490Z,100853.00
2022-10-05T21:29:20.168Z,100846.28
2022-10-05T21:31:47.543Z,100848.94
2022-10-05T21:34:14.182Z,100856.06
2022-10-05T21:36:56.494Z,100849.81
2022-10-05T21:39:23.653Z,100852.13
2022-10-05T21:41:50.349Z,100859.88
2022-10-05T21:44:17.006Z,100856.19
2022-10-05T21:46:43.816Z,100858.13
2022-10-05T21:49:10.639Z,100863.53
2022-10-05T21:51:37.585Z,100854.41
2022-10-05T21:54:11.255Z,100857.72
2022-10-05T21:56:41.150Z,100858.53
2022-10-05T21:59:11.430Z,100854.81
2022-10-05T22:01:38.106Z,100856.69
2022-10-05T22:04:05.873Z,100853.91
2022-10-05T22:06:33.360Z,100854.63
2022-10-05T22:09:00.666Z,100842.13
2022-10-05T22:11:29.358Z,100848.47
2022-10-05T22:14:02.195Z,100852.72
2022-10-05T22:16:31.871Z,100848.69
2022-10-05T22:18:58.870Z,100861.28
2022-10-05T22:21:25.602Z,100853.19
2022-10-05T22:23:52.413Z,100850.59
2022-10-05T22:26:21.736Z,100849.63
2022-10-05T22:28:51.504Z,100856.91
2022-10-05T22:31:18.546Z,100848.16
2022-10-05T22:33:45.163Z,100847.13
2022-10-05T22:36:11.803Z,100853.19
2022-10-05T22:38:38.398Z,100858.09
2022-10-05T22:41:12.801Z,100863.53
2022-10-05T22:43:39.726Z,100864.41
2022-10-05T22:46:13.625Z,100865.44
2022-10-05T22:48:40.546Z,100871.72
2022-10-05T22:51:07.893Z,100876.94
2022-10-05T22:53:35.155Z,100872.41
2022-10-05T22:56:07.079Z,100882.34
2022-10-05T22:58:33.765Z,100887.50
2022-10-05T23:01:03.657Z,100887.78
2022-10-05T23:03:31.210Z,100883.25
2022-10-05T23:06:02.604Z,100888.63
2022-10-05T23:08:31.379Z,100898.34
2022-10-05T23:11:13.293Z,100895.69
2022-10-05T23:13:40.713Z,100895.94
2022-10-05T23:16:15.682Z,100905.53
2022-10-05T23:18:43.666Z,100899.47
2022-10-05T23:21:10.930Z,100915.16
2022-10-05T23:23:39.057Z,100908.31
2022-10-05T23:26:07.528Z,100907.22
2022-10-05T23:28:34.490Z,100911.50
2022-10-05T23:31:06.780Z,100905.28
2022-10-05T23:33:34.319Z,100912.31
2022-10-05T23:36:06.288Z,100923.59
2022-10-05T23:38:33.743Z,100915.84
2022-10-05T23:41:00.729Z,100922.78
2022-10-05T23:43:27.749Z,100914.84
2022-10-05T23:45:55.404Z,100924.31
2022-10-05T23:48:22.747Z,100923.41
2022-10-05T23:50:49.666Z,100929.63
2022-10-05T23:53:17.469Z,100932.09
2022-10-05T23:55:44.270Z,100926.69
2022-10-05T23:58:11.548Z,100934.44
